Time;durP1;ratioP1;P1;durP2;ratioP2;P2;SDS_P1;SDS_P2;PMS_P1;PMS_P2;Temp;Humidity;BMP_temperature;BMP_pressure;BME280_temperature;BME280_humidity;BME280_pressure;Samples;Min_cycle;Max_cycle;Signal;HPM_P1;HPM_P2
2022/06/05 00:01:40;;;;;;;8.97;5.43;;;;;;;;;;5011441;28;20021;-49
2022/06/05 00:04:08;;;;;;;7.22;4.43;;;;;;;;;;4995661;28;20268;-49
2022/06/05 00:06:56;;;;;;;10.00;4.65;;;;;;;;;;5017718;28;20036;-49
2022/06/05 00:09:31;;;;;;;8.82;4.55;;;;;;;;;;5010652;28;20124;-50
2022/06/05 00:12:06;;;;;;;7.78;4.93;;;;;;;;;;5019809;28;20033;-50
2022/06/05 00:14:32;;;;;;;7.82;4.55;;;;;;;;;;5017480;28;20038;-49
2022/06/05 00:16:57;;;;;;;9.45;4.65;;;;;;;;;;5021215;28;20481;-50
2022/06/05 00:19:22;;;;;;;9.60;4.67;;;;;;;;;;5019019;28;20065;-49
2022/06/05 00:21:49;;;;;;;6.87;4.73;;;;;;;;;;5021812;28;20049;-50
2022/06/05 00:24:14;;;;;;;7.03;4.50;;;;;;;;;;5023469;28;20322;-49
2022/06/05 00:26:55;;;;;;;8.53;4.93;;;;;;;;;;5021740;28;20026;-50
2022/06/05 00:29:39;;;;;;;10.82;6.05;;;;;;;;;;5000630;28;20272;-50
2022/06/05 00:32:23;;;;;;;11.00;5.70;;;;;;;;;;5016310;28;20052;-48
2022/06/05 00:34:48;;;;;;;8.13;4.00;;;;;;;;;;5022352;28;20025;-50
2022/06/05 00:37:19;;;;;;;8.57;5.15;;;;;;;;;;5025076;28;20476;-50
2022/06/05 00:39:44;;;;;;;8.85;4.78;;;;;;;;;;5017171;28;20071;-50
2022/06/05 00:42:10;;;;;;;7.83;4.83;;;;;;;;;;5018725;28;20009;-50
2022/06/05 00:44:37;;;;;;;9.13;4.80;;;;;;;;;;5016089;28;20361;-51
2022/06/05 00:47:02;;;;;;;7.32;4.70;;;;;;;;;;5001035;28;20481;-51
2022/06/05 00:49:35;;;;;;;8.88;4.72;;;;;;;;;;5016367;28;20032;-51
2022/06/05 00:52:00;;;;;;;10.73;5.07;;;;;;;;;;5012184;28;20485;-51
2022/06/05 00:54:25;;;;;;;8.75;5.00;;;;;;;;;;5015420;28;20036;-50
2022/06/05 00:56:51;;;;;;;16.67;11.93;;;;;;;;;;5020991;28;20025;-50
2022/06/05 00:59:16;;;;;;;10.88;6.95;;;;;;;;;;5017733;28;20280;-49
2022/06/05 01:01:41;;;;;;;10.93;6.57;;;;;;;;;;5013297;28;20018;-49
2022/06/05 01:04:07;;;;;;;10.35;6.15;;;;;;;;;;5013760;28;20771;-49
2022/06/05 01:06:32;;;;;;;10.05;5.50;;;;;;;;;;5013598;28;20455;-50
2022/06/05 01:08:57;;;;;;;12.00;5.90;;;;;;;;;;5016447;28;20026;-50
2022/06/05 01:11:38;;;;;;;8.63;5.43;;;;;;;;;;5015675;28;20272;-50
2022/06/05 01:14:09;;;;;;;7.57;5.10;;;;;;;;;;5016420;28;20646;-50
2022/06/05 01:16:54;;;;;;;8.13;5.43;;;;;;;;;;5020268;28;20017;-50
2022/06/05 01:19:35;;;;;;;9.60;5.55;;;;;;;;;;5014154;28;20512;-50
2022/06/05 01:22:00;;;;;;;10.05;5.10;;;;;;;;;;5015492;28;20464;-50
2022/06/05 01:24:29;;;;;;;8.82;4.65;;;;;;;;;;5018582;28;20105;-50
2022/06/05 01:27:00;;;;;;;7.82;5.03;;;;;;;;;;5007814;28;20036;-49
2022/06/05 01:29:38;;;;;;;8.98;4.75;;;;;;;;;;5005131;28;20033;-50
2022/06/05 01:32:12;;;;;;;7.03;4.75;;;;;;;;;;5018713;28;20080;-50
2022/06/05 01:34:42;;;;;;;9.95;5.32;;;;;;;;;;4998224;28;20024;-49
2022/06/05 01:37:16;;;;;;;7.65;4.80;;;;;;;;;;5012544;28;20416;-50
2022/06/05 01:39:44;;;;;;;12.10;5.55;;;;;;;;;;4998900;28;20062;-49
2022/06/05 01:42:11;;;;;;;7.22;4.80;;;;;;;;;;5014367;28;20036;-48
2022/06/05 01:44:37;;;;;;;9.27;4.68;;;;;;;;;;5003786;28;20068;-50
2022/06/05 01:47:07;;;;;;;6.50;5.40;;;;;;;;;;5014509;28;20113;-51
2022/06/05 01:49:35;;;;;;;8.52;5.00;;;;;;;;;;5003034;28;20029;-51
2022/06/05 01:52:20;;;;;;;10.23;5.05;;;;;;;;;;5002488;28;20049;-49
2022/06/05 01:54:54;;;;;;;10.23;5.20;;;;;;;;;;5000591;28;20017;-50
2022/06/05 01:57:20;;;;;;;9.15;5.10;;;;;;;;;;5011945;28;20018;-49
2022/06/05 01:59:50;;;;;;;8.60;4.68;;;;;;;;;;4998671;28;20020;-49
2022/06/05 02:02:17;;;;;;;9.05;4.88;;;;;;;;;;4999001;28;20455;-50
2022/06/05 02:04:43;;;;;;;8.05;4.30;;;;;;;;;;5020584;28;20181;-49
2022/06/05 02:07:11;;;;;;;9.02;4.70;;;;;;;;;;5016432;28;20075;-50
2022/06/05 02:09:39;;;;;;;8.38;4.63;;;;;;;;;;5019569;28;20768;-49
2022/06/05 02:12:04;;;;;;;9.07;5.07;;;;;;;;;;5000140;28;20115;-51
2022/06/05 02:14:29;;;;;;;10.55;5.18;;;;;;;;;;5019865;28;20479;-49
2022/06/05 02:16:55;;;;;;;8.90;5.20;;;;;;;;;;5018892;28;20750;-49
2022/06/05 02:19:21;;;;;;;7.57;4.90;;;;;;;;;;5020000;28;20304;-49
2022/06/05 02:21:47;;;;;;;7.68;4.70;;;;;;;;;;5004849;28;20268;-49
2022/06/05 02:24:12;;;;;;;9.63;5.25;;;;;;;;;;4998889;28;20072;-49
2022/06/05 02:26:37;;;;;;;7.38;4.93;;;;;;;;;;5017375;28;20025;-49
2022/06/05 02:29:19;;;;;;;6.90;5.68;;;;;;;;;;5015782;28;20045;-50
2022/06/05 02:31:44;;;;;;;6.85;5.18;;;;;;;;;;5004900;28;20103;-50
2022/06/05 02:34:10;;;;;;;7.83;4.70;;;;;;;;;;5018482;28;20029;-50
2022/06/05 02:36:47;;;;;;;6.20;4.63;;;;;;;;;;5020027;28;20253;-50
2022/06/05 02:39:21;;;;;;;9.18;4.82;;;;;;;;;;5019706;28;20422;-50
2022/06/05 02:41:59;;;;;;;6.82;5.05;;;;;;;;;;5015341;28;20028;-50
2022/06/05 02:44:29;;;;;;;8.05;4.72;;;;;;;;;;5018032;28;20088;-50
2022/06/05 02:47:03;;;;;;;8.85;5.07;;;;;;;;;;5011910;28;20036;-49
2022/06/05 02:49:34;;;;;;;18.05;7.05;;;;;;;;;;5008815;28;20088;-49
2022/06/05 02:52:01;;;;;;;864.25;369.40;;;;;;;;;;5012593;28;20061;-49
2022/06/05 02:54:29;;;;;;;1999.90;916.03;;;;;;;;;;4998119;28;20026;-49
2022/06/05 02:56:57;;;;;;;1999.90;999.90;;;;;;;;;;5018474;28;20504;-49
2022/06/05 02:59:23;;;;;;;1999.90;999.90;;;;;;;;;;5002158;28;20049;-50
2022/06/05 03:04:32;;;;;;;790.60;287.55;;;;;;;;;;5017920;28;20166;-50
2022/06/05 03:06:57;;;;;;;573.37;217.80;;;;;;;;;;5016131;28;20511;-50
2022/06/05 03:09:22;;;;;;;7.80;4.27;;;;;;;;;;5018529;28;20434;-50
2022/06/05 03:11:48;;;;;;;71.93;20.77;;;;;;;;;;5018539;28;20018;-49
2022/06/05 03:14:13;;;;;;;1627.13;969.47;;;;;;;;;;5019363;28;20018;-49
2022/06/05 03:16:38;;;;;;;1999.90;999.90;;;;;;;;;;5013810;28;20265;-49
2022/06/05 03:19:03;;;;;;;9.75;5.15;;;;;;;;;;5024783;28;20491;-50
2022/06/05 03:21:32;;;;;;;7.07;4.77;;;;;;;;;;5018622;28;20091;-49
2022/06/05 03:23:57;;;;;;;163.30;64.05;;;;;;;;;;5018866;28;20282;-49
2022/06/05 03:26:23;;;;;;;15.67;7.77;;;;;;;;;;5015192;28;20025;-50
2022/06/05 03:28:48;;;;;;;32.70;10.17;;;;;;;;;;5019972;28;20308;-49
2022/06/05 03:31:13;;;;;;;9.03;4.73;;;;;;;;;;5015823;28;20689;-50
2022/06/05 03:33:38;;;;;;;49.95;43.65;;;;;;;;;;5022947;28;20314;-49
2022/06/05 03:36:07;;;;;;;12.63;6.07;;;;;;;;;;5021762;28;20017;-50
2022/06/05 03:38:32;;;;;;;10.32;5.55;;;;;;;;;;5011413;28;20663;-49
2022/06/05 03:40:58;;;;;;;9.00;4.87;;;;;;;;;;5019832;28;20025;-49
2022/06/05 03:43:23;;;;;;;8.40;5.20;;;;;;;;;;5018057;28;20624;-50
2022/06/05 03:45:48;;;;;;;7.97;5.43;;;;;;;;;;5023802;28;20282;-48
2022/06/05 03:48:13;;;;;;;7.63;5.30;;;;;;;;;;5020870;28;20488;-49
2022/06/05 03:50:39;;;;;;;8.15;5.07;;;;;;;;;;5016506;28;20315;-49
2022/06/05 03:53:04;;;;;;;7.25;5.07;;;;;;;;;;5016785;28;20484;-50
2022/06/05 03:55:30;;;;;;;8.20;4.95;;;;;;;;;;5013854;28;20014;-49
2022/06/05 03:57:55;;;;;;;10.70;5.30;;;;;;;;;;5021215;28;20017;-49
2022/06/05 04:00:20;;;;;;;8.95;4.88;;;;;;;;;;5020702;28;20378;-50
2022/06/05 04:02:47;;;;;;;8.38;5.13;;;;;;;;;;5022933;28;20017;-49
2022/06/05 04:05:13;;;;;;;8.10;5.22;;;;;;;;;;5017869;28;20031;-49
2022/06/05 04:07:39;;;;;;;16.58;6.78;;;;;;;;;;5021614;28;20420;-49
2022/06/05 04:10:05;;;;;;;7.50;4.82;;;;;;;;;;5021900;28;20025;-49
2022/06/05 04:12:30;;;;;;;8.15;5.18;;;;;;;;;;5016547;28;20165;-50
2022/06/05 04:14:55;;;;;;;9.43;4.70;;;;;;;;;;5020054;28;20416;-49
2022/06/05 04:17:20;;;;;;;10.23;5.27;;;;;;;;;;5022898;28;20287;-49
2022/06/05 04:19:46;;;;;;;6.83;5.30;;;;;;;;;;5022975;28;20272;-49
2022/06/05 04:22:11;;;;;;;31.10;17.37;;;;;;;;;;5025395;28;20379;-49
2022/06/05 04:24:36;;;;;;;7.20;4.90;;;;;;;;;;5020391;28;20272;-49
2022/06/05 04:27:02;;;;;;;9.55;4.93;;;;;;;;;;4984929;28;21042;-49
2022/06/05 04:29:27;;;;;;;10.18;5.10;;;;;;;;;;5018747;28;20032;-49
2022/06/05 04:31:52;;;;;;;9.10;5.00;;;;;;;;;;5017121;28;20060;-49
2022/06/05 04:34:19;;;;;;;8.13;5.50;;;;;;;;;;5014863;28;20029;-49
2022/06/05 04:36:44;;;;;;;9.55;5.88;;;;;;;;;;5023601;28;20296;-50
2022/06/05 04:39:09;;;;;;;10.07;5.87;;;;;;;;;;5020136;28;20528;-50
2022/06/05 04:41:35;;;;;;;7.82;5.60;;;;;;;;;;5017568;28;20261;-50
2022/06/05 04:44:00;;;;;;;8.95;5.57;;;;;;;;;;5023193;28;20596;-50
2022/06/05 04:46:26;;;;;;;11.38;5.75;;;;;;;;;;5026356;28;20489;-50
2022/06/05 04:48:51;;;;;;;10.13;5.43;;;;;;;;;;5019719;28;20033;-50
2022/06/05 04:51:18;;;;;;;10.13;5.85;;;;;;;;;;5018622;28;20029;-50
2022/06/05 04:53:44;;;;;;;10.30;5.88;;;;;;;;;;5015352;28;20044;-50
2022/06/05 04:56:10;;;;;;;11.20;5.93;;;;;;;;;;5021067;28;20021;-50
2022/06/05 04:58:35;;;;;;;9.65;6.63;;;;;;;;;;5018992;28;20292;-50
2022/06/05 05:01:01;;;;;;;12.00;6.13;;;;;;;;;;5005599;28;20487;-50
2022/06/05 05:03:26;;;;;;;10.53;5.73;;;;;;;;;;5014694;28;21634;-49
2022/06/05 05:05:51;;;;;;;10.43;5.97;;;;;;;;;;5023830;28;20279;-49
2022/06/05 05:08:16;;;;;;;14.60;6.10;;;;;;;;;;5020880;28;20022;-49
2022/06/05 05:10:42;;;;;;;9.15;5.95;;;;;;;;;;5014598;28;21865;-49
2022/06/05 05:13:07;;;;;;;11.35;5.97;;;;;;;;;;5017385;28;20037;-51
2022/06/05 05:15:32;;;;;;;10.45;6.30;;;;;;;;;;5001700;28;20033;-55
2022/06/05 05:17:58;;;;;;;13.70;6.47;;;;;;;;;;5017759;28;20026;-53
2022/06/05 05:20:24;;;;;;;9.25;5.63;;;;;;;;;;5020872;28;20267;-50
2022/06/05 05:22:49;;;;;;;9.93;6.35;;;;;;;;;;5001516;28;20095;-53
2022/06/05 05:25:14;;;;;;;9.65;5.97;;;;;;;;;;5017523;28;20033;-54
2022/06/05 05:27:40;;;;;;;10.43;6.50;;;;;;;;;;5016207;28;20025;-54
2022/06/05 05:30:05;;;;;;;9.90;5.93;;;;;;;;;;5020923;28;20280;-54
2022/06/05 05:32:31;;;;;;;9.52;5.93;;;;;;;;;;5016024;28;20073;-54
2022/06/05 05:34:56;;;;;;;9.60;5.87;;;;;;;;;;5020131;28;20495;-50
2022/06/05 05:37:21;;;;;;;9.55;6.25;;;;;;;;;;5023578;28;20371;-50
2022/06/05 05:42:31;;;;;;;10.88;6.00;;;;;;;;;;5017602;28;20292;-53
2022/06/05 05:44:56;;;;;;;8.90;6.05;;;;;;;;;;5018646;28;20065;-50
2022/06/05 05:47:23;;;;;;;8.68;5.82;;;;;;;;;;5021748;28;20014;-51
2022/06/05 05:49:52;;;;;;;9.82;5.90;;;;;;;;;;5015765;28;20555;-50
2022/06/05 05:52:17;;;;;;;10.45;6.22;;;;;;;;;;5021806;28;20522;-49
2022/06/05 05:54:42;;;;;;;325.15;124.22;;;;;;;;;;5024927;28;20026;-51
2022/06/05 05:57:08;;;;;;;8.60;6.33;;;;;;;;;;5023678;28;20025;-51
2022/06/05 05:59:34;;;;;;;10.50;6.20;;;;;;;;;;5023671;28;20251;-51
2022/06/05 06:01:59;;;;;;;11.65;6.63;;;;;;;;;;5014608;28;20108;-51
2022/06/05 06:04:24;;;;;;;9.90;5.77;;;;;;;;;;5023122;28;20472;-52
2022/06/05 06:06:49;;;;;;;11.20;7.03;;;;;;;;;;5018847;28;20268;-51
2022/06/05 06:09:15;;;;;;;14.20;7.47;;;;;;;;;;5018287;28;20248;-50
2022/06/05 06:11:40;;;;;;;11.38;7.13;;;;;;;;;;5015203;28;20009;-52
2022/06/05 06:14:05;;;;;;;13.03;6.97;;;;;;;;;;5011900;28;20419;-51
2022/06/05 06:16:31;;;;;;;15.27;6.37;;;;;;;;;;5019992;28;21093;-50
2022/06/05 06:18:56;;;;;;;11.18;6.97;;;;;;;;;;5015203;28;20272;-52
2022/06/05 06:21:22;;;;;;;11.98;7.03;;;;;;;;;;5019860;28;20021;-51
2022/06/05 06:23:47;;;;;;;10.80;6.40;;;;;;;;;;4999872;28;20806;-53
2022/06/05 06:26:13;;;;;;;15.52;7.28;;;;;;;;;;5016520;28;20026;-53
2022/06/05 06:28:38;;;;;;;12.25;6.72;;;;;;;;;;5020850;28;20077;-52
2022/06/05 06:31:04;;;;;;;13.23;7.23;;;;;;;;;;5017182;28;20080;-51
2022/06/05 06:33:29;;;;;;;12.80;6.88;;;;;;;;;;5019530;28;20379;-52
2022/06/05 06:35:55;;;;;;;9.60;6.87;;;;;;;;;;5022047;28;20104;-51
2022/06/05 06:38:20;;;;;;;12.32;7.05;;;;;;;;;;5022151;28;20274;-51
2022/06/05 06:40:45;;;;;;;12.00;6.80;;;;;;;;;;5015530;28;20466;-51
2022/06/05 06:43:10;;;;;;;12.90;6.90;;;;;;;;;;5019753;28;20279;-50
2022/06/05 06:45:37;;;;;;;8.97;6.73;;;;;;;;;;5018025;28;20775;-52
2022/06/05 06:48:02;;;;;;;10.13;6.25;;;;;;;;;;5019852;28;20029;-51
2022/06/05 06:50:27;;;;;;;11.93;6.70;;;;;;;;;;5022869;28;20024;-51
2022/06/05 06:52:52;;;;;;;15.10;7.97;;;;;;;;;;5022132;28;20041;-52
2022/06/05 06:55:18;;;;;;;14.87;7.27;;;;;;;;;;5018733;28;20022;-51
2022/06/05 06:57:44;;;;;;;10.00;7.00;;;;;;;;;;5013749;28;20304;-52
2022/06/05 07:00:12;;;;;;;9.75;6.63;;;;;;;;;;5019351;28;20085;-52
2022/06/05 07:02:37;;;;;;;12.20;7.53;;;;;;;;;;5000154;28;20040;-52
2022/06/05 07:05:02;;;;;;;14.35;7.47;;;;;;;;;;5013341;28;20026;-52
2022/06/05 07:07:28;;;;;;;11.93;6.72;;;;;;;;;;5011446;28;20554;-52
2022/06/05 07:09:53;;;;;;;9.70;6.55;;;;;;;;;;5009809;28;20113;-51
2022/06/05 07:12:21;;;;;;;11.00;7.07;;;;;;;;;;5011322;28;20029;-52
2022/06/05 07:14:46;;;;;;;12.15;6.10;;;;;;;;;;5016484;28;20018;-51
2022/06/05 07:17:11;;;;;;;11.23;6.37;;;;;;;;;;5011279;28;20095;-52
2022/06/05 07:19:37;;;;;;;10.23;6.50;;;;;;;;;;5014111;28;20303;-52
2022/06/05 07:22:02;;;;;;;9.23;6.20;;;;;;;;;;5012855;28;20287;-52
2022/06/05 07:24:27;;;;;;;8.93;5.88;;;;;;;;;;5009198;28;20433;-52
2022/06/05 07:26:54;;;;;;;8.20;5.72;;;;;;;;;;5017115;28;20108;-51
2022/06/05 07:29:19;;;;;;;9.55;5.75;;;;;;;;;;5015493;28;20057;-51
2022/06/05 07:31:44;;;;;;;12.20;6.97;;;;;;;;;;5013100;28;20539;-52
2022/06/05 07:34:10;;;;;;;9.15;5.70;;;;;;;;;;5013484;28;20025;-52
2022/06/05 07:36:35;;;;;;;8.52;6.00;;;;;;;;;;5017822;28;20010;-51
2022/06/05 07:39:02;;;;;;;7.47;5.03;;;;;;;;;;5012743;28;20017;-53
2022/06/05 07:41:29;;;;;;;9.32;5.72;;;;;;;;;;5014871;28;20021;-52
2022/06/05 07:43:55;;;;;;;14.05;5.53;;;;;;;;;;5011226;28;20105;-52
2022/06/05 07:46:20;;;;;;;7.93;5.30;;;;;;;;;;5011144;28;20097;-52
2022/06/05 07:48:45;;;;;;;7.78;5.45;;;;;;;;;;5015652;28;20330;-52
2022/06/05 07:56:39;;;;;;;6.00;4.90;;;;;;;;;;5018074;28;20028;-50
2022/06/05 07:59:05;;;;;;;7.93;5.30;;;;;;;;;;5021816;28;20025;-51
2022/06/05 08:01:30;;;;;;;7.78;5.00;;;;;;;;;;5019917;28;20272;-52
2022/06/05 08:03:55;;;;;;;7.40;4.80;;;;;;;;;;5016708;28;20131;-51
2022/06/05 08:06:20;;;;;;;10.17;5.37;;;;;;;;;;5021324;28;20040;-51
2022/06/05 08:08:46;;;;;;;7.93;5.07;;;;;;;;;;5012360;28;20334;-50
2022/06/05 08:11:11;;;;;;;6.80;5.10;;;;;;;;;;5016769;28;20364;-51
2022/06/05 08:13:36;;;;;;;7.00;4.70;;;;;;;;;;5014813;28;20121;-51
2022/06/05 08:16:02;;;;;;;9.57;5.30;;;;;;;;;;5017546;28;20687;-50
2022/06/05 08:18:27;;;;;;;8.05;5.03;;;;;;;;;;5012288;28;20084;-52
2022/06/05 08:20:53;;;;;;;7.30;4.45;;;;;;;;;;5013949;28;20014;-51
2022/06/05 08:23:18;;;;;;;8.18;4.82;;;;;;;;;;5017533;28;20025;-51
2022/06/05 08:25:44;;;;;;;7.17;4.80;;;;;;;;;;5014205;28;20018;-51
2022/06/05 08:28:10;;;;;;;8.18;5.05;;;;;;;;;;5018068;28;20264;-50
2022/06/05 08:30:35;;;;;;;6.43;4.55;;;;;;;;;;4989378;28;20022;-50
2022/06/05 08:33:01;;;;;;;9.00;5.10;;;;;;;;;;5001356;28;20607;-50
2022/06/05 08:35:26;;;;;;;7.30;4.93;;;;;;;;;;5013695;28;20067;-50
2022/06/05 08:43:23;;;;;;;6.80;4.75;;;;;;;;;;5022543;28;20134;-50
2022/06/05 08:46:00;;;;;;;8.23;4.60;;;;;;;;;;5017995;28;20024;-50
2022/06/05 08:48:29;;;;;;;6.53;4.63;;;;;;;;;;5017156;28;20101;-50
2022/06/05 08:51:02;;;;;;;7.75;4.72;;;;;;;;;;5002687;28;20033;-50
2022/06/05 08:53:30;;;;;;;9.07;4.97;;;;;;;;;;5015689;28;20057;-52
2022/06/05 08:55:56;;;;;;;5.78;4.90;;;;;;;;;;5014077;28;20013;-51
2022/06/05 08:58:29;;;;;;;8.17;5.00;;;;;;;;;;5008935;28;20033;-52
2022/06/05 09:01:00;;;;;;;9.80;4.72;;;;;;;;;;5017809;28;20260;-51
2022/06/05 09:03:28;;;;;;;7.60;4.75;;;;;;;;;;4998136;28;20076;-52
2022/06/05 09:06:08;;;;;;;6.47;4.20;;;;;;;;;;5013083;28;20036;-52
2022/06/05 09:08:34;;;;;;;5.07;4.15;;;;;;;;;;5018011;28;20037;-50
2022/06/05 09:11:25;;;;;;;6.45;4.43;;;;;;;;;;5015979;28;20464;-52
2022/06/05 09:14:11;;;;;;;7.07;4.60;;;;;;;;;;4997204;28;20056;-50
2022/06/05 09:16:38;;;;;;;7.05;4.30;;;;;;;;;;5012369;28;20036;-51
2022/06/05 09:19:03;;;;;;;6.72;4.63;;;;;;;;;;4997346;28;20022;-50
2022/06/05 09:21:32;;;;;;;5.60;4.50;;;;;;;;;;5018966;28;20520;-50
2022/06/05 09:24:04;;;;;;;5.93;4.40;;;;;;;;;;5000850;28;20031;-51
2022/06/05 09:26:48;;;;;;;6.88;4.10;;;;;;;;;;5009722;28;20279;-50
2022/06/05 09:29:13;;;;;;;6.85;3.85;;;;;;;;;;5020237;28;20473;-55
2022/06/05 09:31:50;;;;;;;6.73;4.13;;;;;;;;;;5012103;28;20064;-51
2022/06/05 09:34:20;;;;;;;6.40;3.70;;;;;;;;;;5013889;28;20114;-51
2022/06/05 09:36:48;;;;;;;5.50;3.58;;;;;;;;;;5014158;28;20026;-50
2022/06/05 09:39:13;;;;;;;6.40;3.75;;;;;;;;;;4998404;28;20030;-51
2022/06/05 09:41:39;;;;;;;4.77;3.67;;;;;;;;;;5016622;28;20140;-51
2022/06/05 09:44:12;;;;;;;6.03;3.80;;;;;;;;;;5015731;28;20346;-50
2022/06/05 09:46:43;;;;;;;6.00;3.58;;;;;;;;;;5001696;28;20375;-52
2022/06/05 09:49:10;;;;;;;8.07;4.45;;;;;;;;;;5018904;28;20021;-51
2022/06/05 09:51:40;;;;;;;6.28;3.65;;;;;;;;;;5000388;28;20029;-52
2022/06/05 09:54:19;;;;;;;5.90;3.63;;;;;;;;;;5015491;28;20044;-50
2022/06/05 09:59:35;;;;;;;5.82;3.30;;;;;;;;;;5025543;28;20545;-50
2022/06/05 10:02:00;;;;;;;7.13;3.28;;;;;;;;;;5003172;28;20061;-51
2022/06/05 10:04:30;;;;;;;5.50;2.80;;;;;;;;;;4999477;28;20053;-51
2022/06/05 10:07:17;;;;;;;4.07;2.65;;;;;;;;;;5011520;28;20454;-52
2022/06/05 10:09:45;;;;;;;4.90;2.65;;;;;;;;;;5001929;28;20038;-52
2022/06/05 10:12:32;;;;;;;4.82;2.88;;;;;;;;;;5015662;28;20025;-51
2022/06/05 10:14:59;;;;;;;4.07;3.13;;;;;;;;;;5013294;28;20493;-52
2022/06/05 10:17:31;;;;;;;6.28;2.70;;;;;;;;;;5001320;28;20044;-51
2022/06/05 10:20:07;;;;;;;4.63;2.90;;;;;;;;;;5014765;28;20021;-53
2022/06/05 10:22:38;;;;;;;6.18;2.75;;;;;;;;;;5003435;28;20519;-51
2022/06/05 10:25:22;;;;;;;5.22;3.00;;;;;;;;;;5014414;28;20512;-51
2022/06/05 10:27:48;;;;;;;3.63;2.80;;;;;;;;;;5020828;28;20733;-51
2022/06/05 10:30:15;;;;;;;8.65;3.28;;;;;;;;;;4998000;28;20017;-52
2022/06/05 10:32:45;;;;;;;4.50;3.00;;;;;;;;;;5002051;28;20053;-51
2022/06/05 10:35:12;;;;;;;5.32;2.85;;;;;;;;;;5000472;28;20060;-54
2022/06/05 10:37:43;;;;;;;5.25;2.67;;;;;;;;;;4996677;28;20021;-52
2022/06/05 10:40:12;;;;;;;4.63;2.40;;;;;;;;;;5002707;28;20025;-53
2022/06/05 10:42:45;;;;;;;4.72;2.70;;;;;;;;;;5014466;28;20030;-53
2022/06/05 10:45:19;;;;;;;5.65;2.75;;;;;;;;;;5000302;28;20484;-51
2022/06/05 10:47:57;;;;;;;5.03;3.00;;;;;;;;;;5016063;28;21098;-53
2022/06/05 10:50:28;;;;;;;4.63;2.97;;;;;;;;;;5005699;28;20032;-51
2022/06/05 10:53:14;;;;;;;4.45;2.97;;;;;;;;;;5021031;28;20120;-52
2022/06/05 10:55:45;;;;;;;6.53;2.72;;;;;;;;;;5015140;28;20555;-53
2022/06/05 10:58:27;;;;;;;5.63;2.80;;;;;;;;;;5005018;28;20467;-52
2022/06/05 11:00:56;;;;;;;4.63;2.63;;;;;;;;;;5014018;28;20040;-52
2022/06/05 11:03:33;;;;;;;4.83;2.70;;;;;;;;;;4996861;28;20091;-51
2022/06/05 11:06:03;;;;;;;5.88;3.05;;;;;;;;;;5018035;28;20276;-51
2022/06/05 11:08:41;;;;;;;5.05;2.70;;;;;;;;;;5002687;28;20026;-52
2022/06/05 11:14:13;;;;;;;6.80;2.97;;;;;;;;;;5014306;28;20037;-52
2022/06/05 11:16:39;;;;;;;4.88;2.90;;;;;;;;;;5016766;28;20100;-51
2022/06/05 11:19:15;;;;;;;4.10;2.72;;;;;;;;;;5016576;28;20124;-51
2022/06/05 11:21:43;;;;;;;6.15;2.83;;;;;;;;;;5015471;28;20059;-53
2022/06/05 11:24:38;;;;;;;6.93;2.87;;;;;;;;;;5016860;28;20432;-52
2022/06/05 11:27:05;;;;;;;3.67;2.80;;;;;;;;;;5010354;28;20428;-52
2022/06/05 11:29:46;;;;;;;4.70;2.20;;;;;;;;;;5001675;28;20468;-52
2022/06/05 11:32:15;;;;;;;2.50;1.98;;;;;;;;;;5017557;28;20199;-51
2022/06/05 11:34:45;;;;;;;4.93;2.25;;;;;;;;;;5017380;28;20076;-53
2022/06/05 11:37:13;;;;;;;3.75;2.20;;;;;;;;;;5021990;28;20044;-52
2022/06/05 11:39:51;;;;;;;3.30;1.90;;;;;;;;;;5022807;28;20173;-51
2022/06/05 11:42:19;;;;;;;5.13;2.08;;;;;;;;;;5019275;28;20049;-53
2022/06/05 11:44:45;;;;;;;4.88;1.90;;;;;;;;;;5007873;28;20017;-53
2022/06/05 11:47:25;;;;;;;3.78;1.80;;;;;;;;;;5027417;28;20024;-53
2022/06/05 11:49:56;;;;;;;2.92;1.48;;;;;;;;;;5021078;28;20022;-51
2022/06/05 11:52:30;;;;;;;2.88;1.60;;;;;;;;;;4998992;28;20503;-52
2022/06/05 11:54:58;;;;;;;4.00;1.52;;;;;;;;;;5021148;28;20029;-52
2022/06/05 11:57:42;;;;;;;2.42;1.58;;;;;;;;;;5005336;28;20029;-51
2022/06/05 12:00:27;;;;;;;4.97;1.60;;;;;;;;;;5016902;28;20048;-52
2022/06/05 12:03:22;;;;;;;3.65;1.50;;;;;;;;;;5018497;28;20629;-52
2022/06/05 12:05:47;;;;;;;2.53;1.40;;;;;;;;;;5008288;28;20044;-52
2022/06/05 12:08:15;;;;;;;2.90;1.50;;;;;;;;;;5018301;28;20022;-52
2022/06/05 12:10:48;;;;;;;3.50;1.70;;;;;;;;;;5022902;28;20476;-52
2022/06/05 12:13:32;;;;;;;4.80;1.65;;;;;;;;;;4998522;28;20081;-52
2022/06/05 12:16:00;;;;;;;3.05;1.50;;;;;;;;;;5016678;28;20034;-52
2022/06/05 12:18:26;;;;;;;3.17;1.42;;;;;;;;;;5019850;28;20020;-52
2022/06/05 12:20:53;;;;;;;3.00;1.58;;;;;;;;;;5009926;28;20020;-52
2022/06/05 12:23:29;;;;;;;3.03;1.27;;;;;;;;;;5015221;28;20033;-52
2022/06/05 12:26:13;;;;;;;3.75;1.60;;;;;;;;;;5012809;28;20104;-52
2022/06/05 12:28:45;;;;;;;3.88;1.30;;;;;;;;;;5021978;28;20018;-53
2022/06/05 12:31:13;;;;;;;5.38;1.58;;;;;;;;;;5019430;28;20046;-54
2022/06/05 12:33:42;;;;;;;3.30;1.50;;;;;;;;;;5021686;28;20493;-51
2022/06/05 12:36:19;;;;;;;3.45;1.50;;;;;;;;;;5012451;28;20055;-51
2022/06/05 12:38:47;;;;;;;3.90;1.67;;;;;;;;;;5022925;28;20105;-53
2022/06/05 12:41:16;;;;;;;2.40;1.60;;;;;;;;;;4984306;28;20471;-53
2022/06/05 12:43:41;;;;;;;;;;;;;;;;;;5010283;28;20072;-52
2022/06/05 12:46:27;;;;;;;4.10;1.73;;;;;;;;;;5023555;28;19913;-51
2022/06/05 12:49:03;;;;;;;2.50;1.42;;;;;;;;;;5025404;28;20032;-52
2022/06/05 12:51:28;;;;;;;4.07;1.73;;;;;;;;;;5004250;28;20014;-51
2022/06/05 12:53:55;;;;;;;2.60;1.40;;;;;;;;;;5022961;28;20032;-52
2022/06/05 12:56:20;;;;;;;3.72;1.70;;;;;;;;;;5021884;28;20276;-52
2022/06/05 12:58:45;;;;;;;2.67;1.70;;;;;;;;;;5020782;28;20026;-52
2022/06/05 13:01:11;;;;;;;2.63;1.40;;;;;;;;;;5021727;28;20308;-52
2022/06/05 13:03:55;;;;;;;3.70;1.50;;;;;;;;;;5023160;28;20260;-52
2022/06/05 13:06:57;;;;;;;2.53;1.40;;;;;;;;;;5004313;28;20468;-52
2022/06/05 13:09:46;;;;;;;2.55;1.65;;;;;;;;;;4964165;28;20105;-51
2022/06/05 13:12:32;;;;;;;3.47;1.63;;;;;;;;;;5000761;28;20030;-51
2022/06/05 13:15:15;;;;;;;2.58;1.50;;;;;;;;;;5015637;28;20813;-55
2022/06/05 13:18:03;;;;;;;2.28;1.60;;;;;;;;;;5000398;28;20405;-53
2022/06/05 13:20:32;;;;;;;2.90;1.70;;;;;;;;;;5016556;28;20522;-52
2022/06/05 13:23:09;;;;;;;2.75;1.40;;;;;;;;;;5018050;28;20134;-51
2022/06/05 13:26:04;;;;;;;3.17;1.70;;;;;;;;;;5021921;28;20017;-50
2022/06/05 13:28:35;;;;;;;2.42;1.70;;;;;;;;;;4947631;28;20032;-51
2022/06/05 13:31:07;;;;;;;3.28;1.60;;;;;;;;;;5013042;28;20081;-51
2022/06/05 13:33:37;;;;;;;3.13;1.60;;;;;;;;;;5014832;28;20037;-52
2022/06/05 13:36:21;;;;;;;3.30;1.60;;;;;;;;;;5020745;28;20015;-53
2022/06/05 13:38:49;;;;;;;3.72;1.38;;;;;;;;;;5024526;28;20047;-53
2022/06/05 13:41:16;;;;;;;4.25;1.60;;;;;;;;;;5023209;28;20018;-53
2022/06/05 13:43:45;;;;;;;3.35;2.10;;;;;;;;;;5001463;28;20021;-52
2022/06/05 13:46:14;;;;;;;3.70;1.60;;;;;;;;;;5013779;28;20040;-52
2022/06/05 13:48:39;;;;;;;3.03;1.48;;;;;;;;;;5016054;28;20519;-52
2022/06/05 13:51:07;;;;;;;2.70;1.60;;;;;;;;;;5017571;28;20021;-52
2022/06/05 13:53:37;;;;;;;2.47;1.50;;;;;;;;;;5014234;28;20291;-51
2022/06/05 13:56:22;;;;;;;5.25;1.70;;;;;;;;;;5011225;28;20030;-51
2022/06/05 13:58:50;;;;;;;3.08;1.63;;;;;;;;;;5009007;28;20025;-51
2022/06/05 14:01:36;;;;;;;2.75;1.67;;;;;;;;;;5022988;28;20106;-52
2022/06/05 14:04:15;;;;;;;4.07;1.60;;;;;;;;;;5013226;28;20027;-52
2022/06/05 14:06:43;;;;;;;3.17;1.42;;;;;;;;;;5018921;28;20508;-51
2022/06/05 14:09:11;;;;;;;3.22;1.63;;;;;;;;;;5023341;28;20022;-53
2022/06/05 14:11:43;;;;;;;4.88;1.60;;;;;;;;;;4999881;28;20532;-50
2022/06/05 14:14:09;;;;;;;2.95;1.60;;;;;;;;;;5014194;28;20030;-51
2022/06/05 14:16:39;;;;;;;2.05;1.30;;;;;;;;;;4982877;28;20449;-52
2022/06/05 14:19:06;;;;;;;3.15;1.30;;;;;;;;;;5017375;28;20401;-51
2022/06/05 14:21:32;;;;;;;5.70;1.63;;;;;;;;;;5015614;28;20026;-50
2022/06/05 14:23:58;;;;;;;3.25;1.63;;;;;;;;;;5018594;28;20487;-51
2022/06/05 14:26:33;;;;;;;2.35;1.55;;;;;;;;;;4998574;28;20025;-49
2022/06/05 14:28:59;;;;;;;2.55;1.48;;;;;;;;;;5001859;28;20063;-52
2022/06/05 14:31:24;;;;;;;3.75;1.65;;;;;;;;;;5014867;28;20053;-52
2022/06/05 14:34:01;;;;;;;3.67;1.50;;;;;;;;;;5004281;28;20087;-51
2022/06/05 14:36:44;;;;;;;3.60;1.70;;;;;;;;;;5002598;28;20287;-50
2022/06/05 14:39:29;;;;;;;2.50;1.48;;;;;;;;;;5015438;28;20033;-51
2022/06/05 14:42:00;;;;;;;2.30;1.30;;;;;;;;;;4999631;28;20025;-52
2022/06/05 14:44:27;;;;;;;2.90;1.50;;;;;;;;;;5021732;28;20041;-51
2022/06/05 14:46:57;;;;;;;4.22;1.40;;;;;;;;;;5019278;28;20073;-55
2022/06/05 14:49:22;;;;;;;;;;;;;;;;;;5023986;28;20029;-52
2022/06/05 14:52:06;;;;;;;3.97;1.43;;;;;;;;;;5017668;28;19936;-53
2022/06/05 15:00:21;;;;;;;2.17;1.20;;;;;;;;;;5001255;28;20080;-52
2022/06/05 15:03:05;;;;;;;2.53;1.70;;;;;;;;;;5020347;28;20462;-49
2022/06/05 15:05:34;;;;;;;3.80;1.52;;;;;;;;;;5024034;28;20034;-49
2022/06/05 15:08:12;;;;;;;3.13;1.35;;;;;;;;;;5002734;28;20056;-54
2022/06/05 15:10:52;;;;;;;2.95;1.30;;;;;;;;;;5019880;28;20087;-49
2022/06/05 15:13:31;;;;;;;2.58;1.40;;;;;;;;;;5020766;28;20045;-53
2022/06/05 15:15:57;;;;;;;3.40;1.83;;;;;;;;;;5003271;28;20010;-53
2022/06/05 15:18:22;;;;;;;3.63;1.50;;;;;;;;;;5023246;28;20036;-52
2022/06/05 15:20:53;;;;;;;5.80;1.58;;;;;;;;;;5025650;28;20130;-56